Weather observations for the past three days for
La Grande/Union County Airport
Imperial (Metric)
Date Time (pdt) Wind (mph) Vis. (mi.) Weather Sky Cond. Temperature (ºF) Relative Humidity Wind Chill (°F) Heat Index (°F) Pressure Precipitation (in)
Air Dwpt 6 hour altimeter (in) sea level (mb) 1 hr 3 hr 6 hr
Max. Min.
10 07:56 NW 5 10.00 Fair CLR 51.1 42.1 71% 30.05 1017.4
10 06:56 N 5 10.00 Fair CLR 46 39.9 79% 44 30.06 1017.3
10 05:56 Calm 10.00 Fair CLR 41 39 93% 30.06 1017.5
10 04:56 SE 3 10.00 Fair CLR 41 37.9 53.1 41 89% 30.07 1017.7
10 03:56 N 3 10.00 Fair CLR 46 37.9 73% 30.07 1017.7
10 02:56 Calm 10.00 Fair CLR 45 39 80% 30.07 1017.9
10 01:56 NE 3 10.00 Fair CLR 46.9 39.9 77% 30.07 1018.0
10 00:56 W 5 10.00 Fair CLR 50 41 71% 49 30.07 1017.9
09 23:56 S 5 10.00 Fair CLR 48.9 41 74% 48 30.07 1018.0
09 22:56 Calm 10.00 Fair CLR 54 42.1 75.9 52 64% 30.08 1018.0
09 21:56 SW 6 10.00 Fair CLR 57 42.1 58% 30.07 1017.9
09 20:56 S 8 10.00 Fair CLR 57.9 42.1 56% 30.07 1017.9
09 19:56 NW 6 10.00 Fair CLR 64.9 44.1 47% 30.05 1017.3
09 18:56 N 8 10.00 Fair CLR 73 41 32% 30.05 1016.9
09 17:56 E 3 10.00 Fair CLR 75 36 24% 76 30.05 1017.3
09 16:56 Vrbl 5 10.00 Fair CLR 75.9 33.1 75.9 63 21% 76 30.06 1017.3
09 15:56 Vrbl 3 10.00 Fair CLR 75.9 30 18% 76 30.07 1017.7
09 14:56 Vrbl 7 10.00 Fair CLR 73.9 32 21% 30.09 1018.4
09 13:56 NE 5 10.00 Fair CLR 71.1 36 28% 30.11 1019.1
09 12:56 Vrbl 5 10.00 Fair CLR 69.1 39 33% 30.13 1019.8
09 11:56 N 7 10.00 Fair CLR 66 39 37% 30.15 1020.8
09 09:56 N 3 10.00 Fair CLR 57.9 39.9 51% 30.18 1021.8
09 08:56 Calm 10.00 Fair CLR 55.9 39.9 55% 30.18 1021.7
09 07:56 Vrbl 3 10.00 Fair CLR 50 39.9 68% 30.19 1022.2
09 06:56 NE 5 10.00 A Few Clouds FEW001 46.9 39 74% 45 30.19 1022.2
09 05:56 SE 8 10.00 Fair CLR 39.9 36 86% 35 30.18 1021.9
09 04:56 NW 3 10.00 Fair CLR 44.1 36 55 41 73% 30.18 1021.6
09 03:56 W 5 10.00 Fair CLR 44.1 37 76% 42 30.17 1021.1
09 02:56 Calm 10.00 Fair CLR 45 35.1 68% 30.16 1020.9
09 01:56 N 9 10.00 Fair CLR 48.9 37 64% 45 30.15 1020.3
09 00:56 Vrbl 3 10.00 Fair CLR 48 36 63% 30.15 1020.6
08 23:56 W 3 10.00 Fair CLR 48 35.1 61% 30.14 1020.3
08 22:56 NW 10 10.00 Fair CLR 55 35.1 72 55 47% 30.12 1019.7
08 21:56 W 8 10.00 Fair CLR 57 34 42% 30.11 1019.4
08 20:56 Calm 10.00 Fair CLR 59 33.1 38% 30.1 1019.0
08 19:56 N 7 10.00 Fair CLR 61 32 34% 30.06 1017.8
08 18:56 NW 15 G 23 10.00 Fair CLR 66.9 30.9 26% 30.04 1017.2
08 17:56 NW 21 G 24 10.00 Fair and Breezy CLR 71.1 28 20% 30.03 1017.0
08 16:56 NW 21 G 26 10.00 Fair and Breezy CLR 72 33.1 73.9 62.1 24% 30.02 1016.3
08 15:56 NW 12 10.00 Fair CLR 73 36 26% 30.02 1016.2
08 14:56 N 15 G 18 10.00 Fair CLR 72 33.1 24% 30.02 1016.5
08 13:56 NW 10 G 17 10.00 Fair CLR 72 32 23% 30.02 1016.1
08 12:56 W 8 10.00 Fair CLR 69.1 28.9 22% 30.03 1016.6
08 11:56 Vrbl 3 10.00 Fair CLR 64.9 34 32% 30.05 1017.2
08 10:56 E 3 10.00 Fair CLR 62.1 35.1 62.1 34 37% 30.06 1017.5
08 09:56 E 3 10.00 Fair CLR 57 35.1 44% 30.05 1017.5
08 08:56 Calm 10.00 Fair CLR 52 35.1 53% 30.05 1017.6
08 07:56 S 3 10.00 Fair CLR 48 35.1 61% 30.06 1017.7
08 06:56 Calm 10.00 Fair CLR 41 34 76% 30.06 1017.9
08 05:56 Calm 10.00 Fair CLR 36 32 86% 30.04 1017.4
08 04:56 Calm 10.00 Fair CLR 37.9 33.1 54 35.1 83% 30.03 1016.8
08 03:56 W 3 10.00 Fair CLR 39.9 33.1 77% 30.02 1016.3
08 02:56 NE 3 10.00 Fair CLR 37.9 30.9 76% 30.02 1016.4
08 01:56 Calm 10.00 Fair CLR 41 32 70% 30.02 1016.3
08 00:56 Calm 10.00 Fair CLR 46 34 63% 30.01 1016.0
07 22:56 Calm 10.00 Fair CLR 52 34 73 51.1 50% 30 1015.3
07 21:56 SW 5 10.00 Fair CLR 54 34 47% 29.99 1015.1
07 20:56 W 7 10.00 Fair CLR 59 33.1 38% 29.99 1015.0
07 19:56 W 5 10.00 Fair CLR 63 34 34% 29.97 1014.2
07 18:56 NW 8 10.00 Fair CLR 69.1 35.1 29% 29.96 1013.8
07 17:56 NW 9 10.00 Fair CLR 72 36 27% 29.96 1013.8
07 16:56 W 12 10.00 Fair CLR 73.9 35.1 75 66 24% 29.96 1013.6
07 15:56 NW 14 G 18 10.00 Fair CLR 73.9 36 25% 29.96 1013.7
07 14:56 NW 14 G 20 10.00 Fair CLR 73 37.9 28% 29.97 1014.2
07 13:56 NW 8 10.00 Fair CLR 71.1 39 31% 29.99 1014.7
07 12:56 N 8 10.00 Fair CLR 69.1 41 36% 30.01 1015.3
07 11:56 N 13 G 16 10.00 Fair CLR 68 39.9 36% 30.02 1015.8
07 10:56 N 10 G 16 10.00 Fair CLR 66 37.9 66.9 50 36% 30.02 1015.8
07 09:56 NW 6 10.00 Fair CLR 64 39 40% 30.03 1016.0
07 08:56 NW 9 10.00 Fair CLR 60.1 37 42% 30.04 1016.3
Date Time (pdt) Wind (mph) Vis. (mi.) Weather Sky Cond. Air Dwpt Max. Min. Relative Humidity Wind Chill (°F) Heat Index (°F) altimeter (in) sea level (mb) 1 hr 3 hr 6 hr
6 hour
Temperature (ºF) Pressure Precipitation (in)